createdAt,value
2018-11-29T00:00:44.330Z,-1.90
2018-11-29T00:03:12.913Z,-1.90
2018-11-29T00:05:41.792Z,-1.90
2018-11-29T00:08:11.140Z,-1.90
2018-11-29T00:10:39.664Z,-1.90
2018-11-29T00:13:08.265Z,-1.90
2018-11-29T00:15:36.810Z,-1.90
2018-11-29T00:18:05.424Z,-1.90
2018-11-29T00:20:34.102Z,-1.90
2018-11-29T00:23:02.654Z,-1.90
2018-11-29T00:25:31.218Z,-1.90
2018-11-29T00:27:59.787Z,-1.90
2018-11-29T00:30:28.322Z,-1.90
2018-11-29T00:32:56.869Z,-1.90
2018-11-29T00:35:25.390Z,-1.90
2018-11-29T00:37:53.958Z,-2.00
2018-11-29T00:40:23.982Z,-2.00
2018-11-29T00:42:52.639Z,-2.10
2018-11-29T00:45:22.137Z,-2.10
2018-11-29T00:47:51.070Z,-2.10
2018-11-29T00:50:20.318Z,-2.10
2018-11-29T00:52:49.862Z,-2.10
2018-11-29T00:55:21.286Z,-2.10
2018-11-29T00:57:49.925Z,-2.10
2018-11-29T01:00:19.630Z,-2.10
2018-11-29T01:02:48.214Z,-2.20
2018-11-29T01:05:16.763Z,-2.20
2018-11-29T01:07:45.297Z,-2.30
2018-11-29T01:10:14.767Z,-2.30
2018-11-29T01:12:43.529Z,-2.30
2018-11-29T01:15:15.775Z,-2.40
2018-11-29T01:17:45.116Z,-2.40
2018-11-29T01:20:15.594Z,-2.40
2018-11-29T01:22:44.132Z,-2.40
2018-11-29T01:25:13.537Z,-2.40
2018-11-29T01:27:42.847Z,-2.40
2018-11-29T01:30:13.473Z,-2.40
2018-11-29T01:32:42.049Z,-2.40
2018-11-29T01:35:11.636Z,-2.50
2018-11-29T01:37:40.198Z,-2.50
2018-11-29T01:40:23.860Z,-2.40
2018-11-29T01:42:55.571Z,-2.50
2018-11-29T01:45:24.259Z,-2.50
2018-11-29T01:47:52.850Z,-2.60
2018-11-29T01:50:21.463Z,-2.80
2018-11-29T01:52:50.026Z,-2.80
2018-11-29T01:55:18.569Z,-2.80
2018-11-29T01:57:47.107Z,-2.80
2018-11-29T02:00:16.536Z,-2.90
2018-11-29T02:02:46.369Z,-2.90
2018-11-29T02:05:15.016Z,-2.80
2018-11-29T02:07:43.549Z,-2.80
2018-11-29T02:10:19.289Z,-2.80
2018-11-29T02:12:47.885Z,-2.90
2018-11-29T02:15:16.469Z,-2.90
2018-11-29T02:17:45.034Z,-3.00
2018-11-29T02:20:15.509Z,-3.00
2018-11-29T02:22:44.386Z,-3.00
2018-11-29T02:25:12.930Z,-3.00
2018-11-29T02:27:41.511Z,-3.00
2018-11-29T02:30:17.573Z,-3.10
2018-11-29T02:32:46.485Z,-3.10
2018-11-29T02:35:15.122Z,-3.00
2018-11-29T02:37:43.707Z,-3.00
2018-11-29T02:40:13.381Z,-3.10
2018-11-29T02:42:42.123Z,-3.10
2018-11-29T02:45:14.851Z,-3.20
2018-11-29T02:47:43.416Z,-3.20
2018-11-29T02:50:12.263Z,-3.20
2018-11-29T02:52:40.804Z,-3.20
2018-11-29T02:55:10.578Z,-3.30
2018-11-29T02:57:39.145Z,-3.30
2018-11-29T03:00:11.490Z,-3.30
2018-11-29T03:02:40.064Z,-3.30
2018-11-29T03:05:08.774Z,-3.40
2018-11-29T03:07:37.877Z,-3.40
2018-11-29T03:10:12.520Z,-3.40
2018-11-29T03:12:41.270Z,-3.40
2018-11-29T03:15:13.807Z,-3.40
2018-11-29T03:17:42.486Z,-3.40
2018-11-29T03:20:12.858Z,-3.40
2018-11-29T03:22:41.469Z,-3.40
2018-11-29T03:25:12.823Z,-3.40
2018-11-29T03:27:41.503Z,-3.40
2018-11-29T03:30:13.375Z,-3.50
2018-11-29T03:32:42.434Z,-3.50
2018-11-29T03:35:12.043Z,-3.60
2018-11-29T03:37:40.607Z,-3.60
2018-11-29T03:40:11.471Z,-3.60
2018-11-29T03:42:40.059Z,-3.60
2018-11-29T03:45:10.261Z,-3.60
2018-11-29T03:47:38.920Z,-3.60
2018-11-29T03:50:16.776Z,-3.60
2018-11-29T03:52:45.428Z,-3.60
2018-11-29T03:55:13.988Z,-3.70
2018-11-29T03:57:42.554Z,-3.70
2018-11-29T04:00:18.791Z,-3.70
2018-11-29T04:02:48.698Z,-3.70
2018-11-29T04:05:17.344Z,-3.70
2018-11-29T04:07:45.978Z,-3.70
2018-11-29T04:10:15.527Z,-3.70
2018-11-29T04:12:44.134Z,-3.70
2018-11-29T04:15:14.719Z,-3.70
2018-11-29T04:17:43.311Z,-3.70
2018-11-29T04:20:13.927Z,-3.70
2018-11-29T04:22:42.580Z,-3.60
2018-11-29T04:25:12.242Z,-3.60
2018-11-29T04:27:40.829Z,-3.60
2018-11-29T04:30:12.671Z,-3.70
2018-11-29T04:32:41.246Z,-3.70
2018-11-29T04:35:10.456Z,-3.80
2018-11-29T04:37:39.145Z,-3.80
2018-11-29T04:40:11.362Z,-3.80
2018-11-29T04:42:39.942Z,-3.80
2018-11-29T04:45:10.316Z,-3.80
2018-11-29T04:47:38.859Z,-3.90
2018-11-29T04:50:07.570Z,-4.00
2018-11-29T04:52:43.088Z,-4.00
2018-11-29T04:55:11.677Z,-4.00
2018-11-29T04:57:40.219Z,-4.00
2018-11-29T05:00:17.623Z,-4.00
2018-11-29T05:02:46.210Z,-4.10
2018-11-29T05:05:14.947Z,-4.10
2018-11-29T05:07:43.547Z,-4.10
2018-11-29T05:10:13.156Z,-4.10
2018-11-29T05:12:41.766Z,-4.20
2018-11-29T05:15:11.425Z,-4.20
2018-11-29T05:17:40.029Z,-4.20
2018-11-29T05:20:08.928Z,-4.20
2018-11-29T05:22:37.500Z,-4.20
2018-11-29T05:25:07.315Z,-4.20
2018-11-29T05:27:36.170Z,-4.20
2018-11-29T05:30:13.627Z,-4.20
2018-11-29T05:32:42.166Z,-4.20
2018-11-29T05:35:11.760Z,-4.30
2018-11-29T05:37:40.398Z,-4.20
2018-11-29T05:40:10.587Z,-4.20
2018-11-29T05:42:39.201Z,-4.20
2018-11-29T05:45:08.770Z,-4.20
2018-11-29T05:47:37.281Z,-4.20
2018-11-29T05:50:08.727Z,-4.20
2018-11-29T05:52:37.306Z,-4.30
2018-11-29T05:55:07.531Z,-4.30
2018-11-29T05:57:36.071Z,-4.30
2018-11-29T06:00:05.742Z,-4.30
2018-11-29T06:02:34.290Z,-4.30
2018-11-29T06:05:02.825Z,-4.30
2018-11-29T06:07:31.377Z,-4.30
2018-11-29T06:09:59.891Z,-4.30
2018-11-29T06:12:28.429Z,-4.30
2018-11-29T06:14:57.011Z,-4.30
2018-11-29T06:17:25.558Z,-4.40
2018-11-29T06:19:54.106Z,-4.40
2018-11-29T06:22:22.669Z,-4.40
2018-11-29T06:24:51.258Z,-4.50
2018-11-29T06:27:19.827Z,-4.40
2018-11-29T06:29:48.407Z,-4.30
2018-11-29T06:32:16.982Z,-4.30
2018-11-29T06:34:45.526Z,-4.30
2018-11-29T06:37:14.025Z,-4.40
2018-11-29T06:39:42.610Z,-4.40
2018-11-29T06:42:11.202Z,-4.40
2018-11-29T06:44:39.734Z,-4.40
2018-11-29T06:47:08.307Z,-4.30
2018-11-29T06:49:36.870Z,-4.30
2018-11-29T06:52:06.061Z,-4.20
2018-11-29T06:54:34.622Z,-4.30
2018-11-29T06:57:03.173Z,-4.10
2018-11-29T06:59:31.710Z,-4.10
2018-11-29T07:02:00.280Z,-4.00
2018-11-29T07:04:28.815Z,-3.90
2018-11-29T07:06:57.345Z,-3.80
2018-11-29T07:09:25.941Z,-3.70
2018-11-29T07:11:54.493Z,-3.60
2018-11-29T07:14:23.043Z,-3.40
2018-11-29T07:16:51.633Z,-3.20
2018-11-29T07:19:20.191Z,-2.60
2018-11-29T07:21:52.653Z,-2.20
2018-11-29T07:24:21.246Z,-1.90
2018-11-29T07:26:49.813Z,-1.50
2018-11-29T07:29:18.442Z,-0.50
2018-11-29T07:31:46.951Z,0.50
2018-11-29T07:34:15.508Z,0.90
2018-11-29T07:36:44.035Z,1.40
2018-11-29T07:39:12.575Z,1.80
2018-11-29T07:41:41.134Z,2.20
2018-11-29T07:44:10.577Z,2.70
2018-11-29T07:46:39.143Z,3.10
2018-11-29T07:49:07.706Z,2.80
2018-11-29T07:51:36.258Z,2.10
2018-11-29T07:54:04.942Z,1.40
2018-11-29T07:56:33.493Z,0.70
2018-11-29T07:59:02.076Z,0.20
2018-11-29T08:01:30.617Z,-0.20
2018-11-29T08:03:59.203Z,-0.50
2018-11-29T08:06:27.883Z,-0.60
2018-11-29T08:08:56.447Z,-0.70
2018-11-29T08:11:25.043Z,-0.70
2018-11-29T08:13:53.589Z,-0.60
2018-11-29T08:16:22.164Z,-0.50
2018-11-29T08:18:50.861Z,-0.40
2018-11-29T08:21:19.419Z,-0.30
2018-11-29T08:23:47.974Z,-0.20
2018-11-29T08:26:16.532Z,0.20
2018-11-29T08:28:45.063Z,0.20
2018-11-29T08:31:13.616Z,0.10
2018-11-29T08:33:42.127Z,0.10
2018-11-29T08:36:10.640Z,0.10
2018-11-29T08:38:39.180Z,0.20
2018-11-29T08:41:07.711Z,0.20
2018-11-29T08:43:36.289Z,0.30
2018-11-29T08:46:04.927Z,0.40
2018-11-29T08:48:33.459Z,0.40
2018-11-29T08:51:02.037Z,0.60
2018-11-29T08:53:30.549Z,0.80
2018-11-29T08:55:59.130Z,1.00
2018-11-29T08:58:27.650Z,1.10
2018-11-29T09:00:56.193Z,1.20
2018-11-29T09:03:24.791Z,1.30
2018-11-29T09:05:53.333Z,1.20
2018-11-29T09:08:21.883Z,1.20
2018-11-29T09:10:50.380Z,1.30
2018-11-29T09:13:18.937Z,1.40
2018-11-29T09:15:47.538Z,1.50
2018-11-29T09:18:16.091Z,1.50
2018-11-29T09:20:44.679Z,1.60
2018-11-29T09:23:13.240Z,1.70
2018-11-29T09:25:41.770Z,1.80
2018-11-29T09:28:10.319Z,1.80
2018-11-29T09:30:38.817Z,2.00
2018-11-29T09:33:07.370Z,2.20
2018-11-29T09:35:35.875Z,2.40
2018-11-29T09:38:04.487Z,2.50
2018-11-29T09:40:33.116Z,2.60
2018-11-29T09:43:01.606Z,2.80
2018-11-29T09:45:30.158Z,2.80
2018-11-29T09:47:58.692Z,2.80
2018-11-29T09:50:27.283Z,2.90
2018-11-29T09:52:55.865Z,3.00
2018-11-29T09:55:24.401Z,3.20
2018-11-29T09:57:52.997Z,3.30
2018-11-29T10:00:27.959Z,3.40
2018-11-29T10:03:04.811Z,3.50
2018-11-29T10:05:33.351Z,3.80
2018-11-29T10:08:01.949Z,4.10
2018-11-29T10:10:30.540Z,4.40
2018-11-29T10:12:59.111Z,4.70
2018-11-29T10:15:27.670Z,5.00
2018-11-29T10:17:56.265Z,5.20
2018-11-29T10:20:24.838Z,5.40
2018-11-29T10:22:53.410Z,5.50
2018-11-29T10:25:21.919Z,5.80
2018-11-29T10:27:52.254Z,6.10
2018-11-29T10:30:24.572Z,6.10
2018-11-29T10:32:53.136Z,6.00
2018-11-29T10:35:21.746Z,6.10
2018-11-29T10:37:50.294Z,6.30
2018-11-29T10:40:18.888Z,6.30
2018-11-29T10:42:47.417Z,6.40
2018-11-29T10:45:17.553Z,6.50
2018-11-29T10:47:52.322Z,6.60
2018-11-29T10:50:16.041Z,6.80
2018-11-29T10:52:44.554Z,7.00
2018-11-29T10:55:15.461Z,7.00
2018-11-29T10:57:44.072Z,6.90
2018-11-29T11:00:32.908Z,6.90
2018-11-29T11:03:07.874Z,6.80
2018-11-29T11:05:37.131Z,6.60
2018-11-29T11:08:08.507Z,6.30
2018-11-29T11:10:35.634Z,6.10
2018-11-29T11:13:04.243Z,6.20
2018-11-29T11:15:32.781Z,6.20
2018-11-29T11:18:01.320Z,6.40
2018-11-29T11:20:29.869Z,6.40
2018-11-29T11:22:58.413Z,6.60
2018-11-29T11:25:26.962Z,6.80
2018-11-29T11:27:55.482Z,7.00
2018-11-29T11:30:24.042Z,7.00
2018-11-29T11:32:52.986Z,7.00
2018-11-29T11:35:21.551Z,7.00
2018-11-29T11:37:50.115Z,6.90
2018-11-29T11:40:18.709Z,6.90
2018-11-29T11:42:47.560Z,6.80
2018-11-29T11:45:18.025Z,6.70
2018-11-29T11:47:46.681Z,6.70
2018-11-29T11:50:19.405Z,6.70
2018-11-29T11:52:48.131Z,6.80
2018-11-29T11:55:19.156Z,6.80
2018-11-29T11:57:45.966Z,6.90
2018-11-29T12:00:20.684Z,7.00
2018-11-29T12:02:52.595Z,7.10
2018-11-29T12:05:21.170Z,7.10
2018-11-29T12:07:49.744Z,7.00
2018-11-29T12:10:18.330Z,7.00
2018-11-29T12:12:46.934Z,7.10
2018-11-29T12:15:16.031Z,6.90
2018-11-29T12:17:46.425Z,6.80
2018-11-29T12:20:16.149Z,6.80
2018-11-29T12:22:44.798Z,6.90
2018-11-29T12:25:21.118Z,7.00
2018-11-29T12:27:49.994Z,7.10
2018-11-29T12:30:22.605Z,7.30
2018-11-29T12:32:51.724Z,7.40
2018-11-29T12:35:20.259Z,7.40
2018-11-29T12:37:48.790Z,7.30
2018-11-29T12:40:17.479Z,7.20
2018-11-29T12:42:46.004Z,7.20
2018-11-29T12:45:15.026Z,7.20
2018-11-29T12:47:44.001Z,7.00
2018-11-29T12:50:15.660Z,7.00
2018-11-29T12:52:44.250Z,7.00
2018-11-29T12:55:13.741Z,7.00
2018-11-29T12:57:42.336Z,6.90
2018-11-29T13:00:17.837Z,6.80
2018-11-29T13:02:48.479Z,6.50
2018-11-29T13:05:17.058Z,6.30
2018-11-29T13:07:45.629Z,6.20
2018-11-29T13:10:16.421Z,6.10
2018-11-29T13:12:45.035Z,6.00
2018-11-29T13:15:18.162Z,6.00
2018-11-29T13:17:46.766Z,6.00
2018-11-29T13:20:17.262Z,6.00
2018-11-29T13:22:45.808Z,6.00
2018-11-29T13:25:16.440Z,6.00
2018-11-29T13:27:44.967Z,6.00
2018-11-29T13:30:15.442Z,6.10
2018-11-29T13:32:44.363Z,6.10
2018-11-29T13:35:16.947Z,6.20
2018-11-29T13:37:47.113Z,6.20
2018-11-29T13:42:47.258Z,6.10
2018-11-29T13:45:15.794Z,5.90
2018-11-29T13:47:44.348Z,5.70
2018-11-29T13:50:16.535Z,5.70
2018-11-29T13:52:45.233Z,5.50
2018-11-29T13:55:14.687Z,5.40
2018-11-29T13:57:46.346Z,5.20
2018-11-29T14:00:16.730Z,5.10
2018-11-29T14:02:47.098Z,5.00
2018-11-29T14:05:14.716Z,4.90
2018-11-29T14:07:43.279Z,4.90
2018-11-29T14:10:13.338Z,4.80
2018-11-29T14:12:41.861Z,4.80
2018-11-29T14:15:13.125Z,4.70
2018-11-29T14:17:41.692Z,4.60
2018-11-29T14:20:11.173Z,4.50
2018-11-29T14:22:39.738Z,4.50
2018-11-29T14:25:10.009Z,4.40
2018-11-29T14:27:38.443Z,4.40
2018-11-29T14:30:13.143Z,4.40
2018-11-29T14:32:41.723Z,4.40
2018-11-29T14:35:10.254Z,4.30
2018-11-29T14:37:45.316Z,4.30
2018-11-29T14:40:17.126Z,4.20
2018-11-29T14:42:45.714Z,4.20
2018-11-29T14:45:15.385Z,4.10
2018-11-29T14:47:43.950Z,4.10
2018-11-29T14:50:47.334Z,3.90
2018-11-29T14:53:18.815Z,3.80
2018-11-29T14:55:47.314Z,3.70
2018-11-29T14:58:19.653Z,3.60
2018-11-29T15:00:44.470Z,3.60
2018-11-29T15:03:17.636Z,3.50
2018-11-29T15:05:46.627Z,3.40
2018-11-29T15:08:15.133Z,3.40
2018-11-29T15:10:43.712Z,3.30
2018-11-29T15:13:12.794Z,3.20
2018-11-29T15:15:42.216Z,3.10
2018-11-29T15:18:11.474Z,3.20
2018-11-29T15:20:41.578Z,3.20
2018-11-29T15:25:29.266Z,3.20
2018-11-29T15:27:57.806Z,3.20
2018-11-29T15:30:26.303Z,3.10
2018-11-29T15:32:55.225Z,2.90
2018-11-29T15:35:23.741Z,2.90
2018-11-29T15:37:52.886Z,2.80
2018-11-29T15:40:21.425Z,2.50
2018-11-29T15:42:49.975Z,2.40
2018-11-29T15:45:20.528Z,2.30
2018-11-29T15:47:49.130Z,2.30
2018-11-29T15:50:17.774Z,2.40
2018-11-29T15:52:46.404Z,2.40
2018-11-29T15:55:16.774Z,2.50
2018-11-29T15:57:46.219Z,2.40
2018-11-29T16:00:25.023Z,2.30
2018-11-29T16:02:54.332Z,2.20
2018-11-29T16:05:22.846Z,2.10
2018-11-29T16:07:51.430Z,2.00
2018-11-29T16:10:21.431Z,2.00
2018-11-29T16:12:50.047Z,1.90
2018-11-29T16:15:19.383Z,1.90
2018-11-29T16:17:48.709Z,2.00
2018-11-29T16:20:32.393Z,1.90
2018-11-29T16:23:01.033Z,2.00
2018-11-29T16:25:29.588Z,2.00
2018-11-29T16:27:58.235Z,1.90
2018-11-29T16:30:34.606Z,1.80
2018-11-29T16:33:12.032Z,1.70
2018-11-29T16:35:40.521Z,1.60
2018-11-29T16:38:09.297Z,1.50
2018-11-29T16:40:37.971Z,1.40
2018-11-29T16:43:07.411Z,1.40
2018-11-29T16:45:36.592Z,1.30
2018-11-29T16:48:05.381Z,1.20
2018-11-29T16:50:33.925Z,1.10
2018-11-29T16:53:02.474Z,1.10
2018-11-29T16:55:30.997Z,1.20
2018-11-29T16:58:01.604Z,1.20
2018-11-29T17:00:30.605Z,1.20
2018-11-29T17:03:00.282Z,1.20
2018-11-29T17:05:33.548Z,1.30
2018-11-29T17:08:02.156Z,1.30
2018-11-29T17:10:30.682Z,1.20
2018-11-29T17:13:01.345Z,1.10
2018-11-29T17:15:30.059Z,1.00
2018-11-29T17:17:58.611Z,1.00
2018-11-29T17:20:27.124Z,1.00
2018-11-29T17:22:55.697Z,1.00
2018-11-29T17:25:24.212Z,1.00
2018-11-29T17:27:52.794Z,0.90
2018-11-29T17:30:23.393Z,0.80
2018-11-29T17:32:54.034Z,0.80
2018-11-29T17:35:22.669Z,0.80
2018-11-29T17:37:51.510Z,0.80
2018-11-29T17:40:20.976Z,0.80
2018-11-29T17:42:50.038Z,0.80
2018-11-29T17:45:22.849Z,0.70
2018-11-29T17:47:53.835Z,0.70
2018-11-29T17:50:25.710Z,0.60
2018-11-29T17:52:54.258Z,0.70
2018-11-29T17:55:22.841Z,0.60
2018-11-29T17:57:51.412Z,0.60
2018-11-29T18:00:22.238Z,0.60
2018-11-29T18:02:50.819Z,0.60
2018-11-29T18:05:19.793Z,0.60
2018-11-29T18:07:48.642Z,0.60
2018-11-29T18:10:20.630Z,0.60
2018-11-29T18:12:50.649Z,0.70
2018-11-29T18:15:22.430Z,0.60
2018-11-29T18:17:51.051Z,0.60
2018-11-29T18:20:19.662Z,0.60
2018-11-29T18:22:48.226Z,0.60
2018-11-29T18:25:17.438Z,0.50
2018-11-29T18:27:48.299Z,0.50
2018-11-29T18:30:18.114Z,0.50
2018-11-29T18:32:46.671Z,0.50
2018-11-29T18:35:15.582Z,0.40
2018-11-29T18:37:44.354Z,0.40
2018-11-29T18:40:16.667Z,0.40
2018-11-29T18:42:46.687Z,0.40
2018-11-29T18:45:16.627Z,0.40
2018-11-29T18:47:46.295Z,0.40
2018-11-29T18:50:18.831Z,0.40
2018-11-29T18:52:47.549Z,0.40
2018-11-29T18:55:16.347Z,0.40
2018-11-29T18:57:44.924Z,0.40
2018-11-29T19:00:14.855Z,0.40
2018-11-29T19:02:43.558Z,0.50
2018-11-29T19:05:12.136Z,0.50
2018-11-29T19:07:40.746Z,0.50
2018-11-29T19:10:14.402Z,0.40
2018-11-29T19:12:54.321Z,0.40
2018-11-29T19:15:22.874Z,0.40
2018-11-29T19:17:51.468Z,0.40
2018-11-29T19:20:23.019Z,0.40
2018-11-29T19:22:51.556Z,0.50
2018-11-29T19:25:20.506Z,0.50
2018-11-29T19:27:49.087Z,0.60
2018-11-29T19:30:21.634Z,0.60
2018-11-29T19:32:52.026Z,0.60
2018-11-29T19:35:20.581Z,0.60
2018-11-29T19:37:49.044Z,0.60
2018-11-29T19:40:18.021Z,0.60
2018-11-29T19:42:46.518Z,0.60
2018-11-29T19:45:15.925Z,0.60
2018-11-29T19:47:44.547Z,0.60
2018-11-29T19:50:14.522Z,0.60
2018-11-29T19:52:44.315Z,0.60
2018-11-29T19:55:14.654Z,0.60
2018-11-29T19:57:43.257Z,0.60
2018-11-29T20:00:12.982Z,0.60
2018-11-29T20:02:42.322Z,0.60
2018-11-29T20:05:11.746Z,0.80
2018-11-29T20:07:40.373Z,0.80
2018-11-29T20:10:10.671Z,0.80
2018-11-29T20:12:39.270Z,0.80
2018-11-29T20:15:18.089Z,0.80
2018-11-29T20:17:50.124Z,0.80
2018-11-29T20:20:18.661Z,0.80
2018-11-29T20:22:47.193Z,0.70
2018-11-29T20:25:18.923Z,0.70
2018-11-29T20:27:53.757Z,0.70
2018-11-29T20:30:23.369Z,0.70
2018-11-29T20:32:54.119Z,0.80
2018-11-29T20:35:22.741Z,0.70
2018-11-29T20:37:52.303Z,0.70
2018-11-29T20:40:25.152Z,0.70
2018-11-29T20:42:54.919Z,0.80
2018-11-29T20:45:32.954Z,0.80
2018-11-29T20:48:02.497Z,0.80
2018-11-29T20:50:31.009Z,0.80
2018-11-29T20:53:00.292Z,0.80
2018-11-29T20:55:31.139Z,0.80
2018-11-29T20:57:59.733Z,0.80
2018-11-29T21:00:28.279Z,0.80
2018-11-29T21:02:56.818Z,0.90
2018-11-29T21:05:25.742Z,0.90
2018-11-29T21:07:56.142Z,0.90
2018-11-29T21:10:25.611Z,0.90
2018-11-29T21:12:54.397Z,0.90
2018-11-29T21:15:23.061Z,0.80
2018-11-29T21:17:51.643Z,0.90
2018-11-29T21:20:21.526Z,0.90
2018-11-29T21:22:51.086Z,0.90
2018-11-29T21:25:23.875Z,0.90
2018-11-29T21:27:52.405Z,0.90
2018-11-29T21:30:20.918Z,0.90
2018-11-29T21:32:50.066Z,0.90
2018-11-29T21:35:21.720Z,0.80
2018-11-29T21:37:51.239Z,0.90
2018-11-29T21:40:23.151Z,0.90
2018-11-29T21:42:51.721Z,0.80
2018-11-29T21:45:20.221Z,0.80
2018-11-29T21:47:48.803Z,0.80
2018-11-29T21:50:17.357Z,0.70
2018-11-29T21:52:45.873Z,0.80
2018-11-29T21:55:14.446Z,0.80
2018-11-29T21:57:43.022Z,0.80
2018-11-29T22:00:17.058Z,0.80
2018-11-29T22:02:48.113Z,0.80
2018-11-29T22:05:16.619Z,0.80
2018-11-29T22:07:45.139Z,0.80
2018-11-29T22:10:13.706Z,0.80
2018-11-29T22:12:42.287Z,0.80
2018-11-29T22:15:11.802Z,0.80
2018-11-29T22:18:49.147Z,0.80
2018-11-29T22:21:17.673Z,0.80
2018-11-29T22:23:46.183Z,0.80
2018-11-29T22:26:16.023Z,0.80
2018-11-29T22:28:44.592Z,0.80
2018-11-29T22:31:13.147Z,0.80
2018-11-29T22:33:48.132Z,0.80
2018-11-29T22:36:16.656Z,0.70
2018-11-29T22:38:45.159Z,0.70
2018-11-29T22:41:13.699Z,0.80
2018-11-29T22:43:42.345Z,0.80
2018-11-29T22:46:10.881Z,0.70
2018-11-29T22:48:39.461Z,0.70
2018-11-29T22:51:08.003Z,0.70
2018-11-29T22:53:36.565Z,0.80
2018-11-29T22:56:05.089Z,0.80
2018-11-29T22:58:33.667Z,0.80
2018-11-29T23:01:02.246Z,0.90
2018-11-29T23:03:30.802Z,0.90
2018-11-29T23:05:59.353Z,0.90
2018-11-29T23:08:27.920Z,0.90
2018-11-29T23:10:56.448Z,0.90
2018-11-29T23:13:24.973Z,0.90
2018-11-29T23:15:53.490Z,0.90
2018-11-29T23:18:22.021Z,0.80
2018-11-29T23:20:50.527Z,0.80
2018-11-29T23:23:19.091Z,0.80
2018-11-29T23:25:47.649Z,0.80
2018-11-29T23:28:16.216Z,0.80
2018-11-29T23:30:44.764Z,0.80
2018-11-29T23:33:13.317Z,0.80
2018-11-29T23:35:41.859Z,0.80
2018-11-29T23:38:10.391Z,0.80
2018-11-29T23:40:38.985Z,0.80
2018-11-29T23:43:07.570Z,0.80
2018-11-29T23:45:36.155Z,0.90
2018-11-29T23:48:04.690Z,0.90
2018-11-29T23:50:33.237Z,1.00
2018-11-29T23:53:01.745Z,1.10
2018-11-29T23:55:30.707Z,1.10
2018-11-29T23:57:59.230Z,1.10
